createdAt,value
2023-03-29T00:01:45.771Z,0.78
2023-03-29T00:04:20.021Z,0.80
2023-03-29T00:06:48.674Z,0.78
2023-03-29T00:09:19.198Z,0.71
2023-03-29T00:11:47.644Z,0.67
2023-03-29T00:14:15.938Z,0.59
2023-03-29T00:16:45.247Z,0.51
2023-03-29T00:19:14.320Z,0.48
2023-03-29T00:21:42.683Z,0.48
2023-03-29T00:24:10.590Z,0.51
2023-03-29T00:26:41.630Z,0.53
2023-03-29T00:29:10.332Z,0.51
2023-03-29T00:31:39.043Z,0.54
2023-03-29T00:34:07.854Z,0.59
2023-03-29T00:36:36.449Z,0.62
2023-03-29T00:39:04.744Z,0.60
2023-03-29T00:41:32.498Z,0.61
2023-03-29T00:44:02.448Z,0.66
2023-03-29T00:46:31.717Z,0.67
2023-03-29T00:49:06.185Z,0.68
2023-03-29T00:51:35.695Z,0.69
2023-03-29T00:54:05.585Z,0.71
2023-03-29T00:56:38.301Z,0.74
2023-03-29T00:59:21.899Z,0.79
2023-03-29T01:01:58.302Z,0.85
2023-03-29T01:04:36.984Z,0.90
2023-03-29T01:07:07.627Z,0.86
2023-03-29T01:09:40.993Z,0.86
2023-03-29T01:12:17.622Z,0.92
2023-03-29T01:14:52.812Z,0.92
2023-03-29T01:17:25.944Z,0.92
2023-03-29T01:20:11.361Z,0.95
2023-03-29T01:22:42.360Z,0.97
2023-03-29T01:25:38.321Z,0.99
2023-03-29T01:28:08.962Z,1.02
2023-03-29T01:30:42.259Z,1.03
2023-03-29T01:33:21.258Z,1.07
2023-03-29T01:36:01.513Z,1.15
2023-03-29T01:38:42.820Z,1.21
2023-03-29T01:41:11.859Z,1.22
2023-03-29T01:43:48.968Z,1.26
2023-03-29T01:46:29.533Z,1.30
2023-03-29T01:49:03.821Z,1.34
2023-03-29T01:51:41.186Z,1.31
2023-03-29T01:54:15.155Z,1.32
2023-03-29T01:56:43.849Z,1.36
2023-03-29T01:59:14.015Z,1.38
2023-03-29T02:01:49.199Z,1.34
2023-03-29T02:04:18.861Z,1.36
2023-03-29T02:06:46.460Z,1.32
2023-03-29T02:09:16.667Z,1.35
2023-03-29T02:11:44.765Z,1.38
2023-03-29T02:14:11.935Z,1.42
2023-03-29T02:16:39.129Z,1.37
2023-03-29T02:19:07.855Z,1.37
2023-03-29T02:21:51.798Z,1.34
2023-03-29T02:24:20.589Z,1.36
2023-03-29T02:26:48.314Z,1.38
2023-03-29T02:29:15.756Z,1.38
2023-03-29T02:31:51.825Z,1.37
2023-03-29T02:34:24.536Z,1.33
2023-03-29T02:36:54.430Z,1.32
2023-03-29T02:39:23.248Z,1.26
2023-03-29T02:41:51.182Z,1.25
2023-03-29T02:44:23.715Z,1.24
2023-03-29T02:46:54.722Z,1.26
2023-03-29T02:49:22.246Z,1.24
2023-03-29T02:51:52.628Z,1.27
2023-03-29T02:54:23.283Z,1.27
2023-03-29T02:56:58.821Z,1.31
2023-03-29T02:59:26.584Z,1.28
2023-03-29T03:01:53.865Z,1.31
2023-03-29T03:04:21.078Z,1.33
2023-03-29T03:06:48.252Z,1.34
2023-03-29T03:09:15.730Z,1.35
2023-03-29T03:11:43.117Z,1.36
2023-03-29T03:14:10.239Z,1.38
2023-03-29T03:16:37.385Z,1.44
2023-03-29T03:19:04.648Z,1.48
2023-03-29T03:21:31.848Z,1.49
2023-03-29T03:23:59.142Z,1.52
2023-03-29T03:26:30.016Z,1.65
2023-03-29T03:28:57.703Z,1.72
2023-03-29T03:31:25.125Z,1.83
2023-03-29T03:33:52.889Z,1.92
2023-03-29T03:36:26.012Z,2.04
2023-03-29T03:38:53.249Z,2.15
2023-03-29T03:41:20.335Z,2.27
2023-03-29T03:43:48.944Z,2.36
2023-03-29T03:46:17.191Z,2.44
2023-03-29T03:48:45.997Z,2.50
2023-03-29T03:51:13.055Z,2.55
2023-03-29T03:53:40.321Z,2.61
2023-03-29T03:56:10.467Z,2.66
2023-03-29T03:58:38.074Z,2.67
2023-03-29T04:01:06.692Z,2.65
2023-03-29T04:03:34.023Z,2.68
2023-03-29T04:06:02.195Z,2.64
2023-03-29T04:08:29.241Z,2.65
2023-03-29T04:10:58.319Z,2.61
2023-03-29T04:13:26.498Z,2.56
2023-03-29T04:15:54.510Z,2.55
2023-03-29T04:18:22.148Z,2.48
2023-03-29T04:20:49.973Z,2.44
2023-03-29T04:23:17.099Z,2.44
2023-03-29T04:25:44.588Z,2.44
2023-03-29T04:28:12.532Z,2.45
2023-03-29T04:30:39.652Z,2.47
2023-03-29T04:33:06.826Z,2.44
2023-03-29T04:35:34.018Z,2.50
2023-03-29T04:38:01.220Z,2.55
2023-03-29T04:40:29.016Z,2.62
2023-03-29T04:42:56.275Z,2.66
2023-03-29T04:45:23.387Z,2.66
2023-03-29T04:47:50.569Z,2.67
2023-03-29T04:50:17.720Z,2.69
2023-03-29T04:52:45.527Z,2.71
2023-03-29T04:55:12.936Z,2.72
2023-03-29T04:57:39.965Z,2.74
2023-03-29T05:00:17.413Z,2.74
2023-03-29T05:02:44.969Z,2.73
2023-03-29T05:05:12.879Z,2.76
2023-03-29T05:07:40.205Z,2.79
2023-03-29T05:10:08.351Z,2.81
2023-03-29T05:12:35.638Z,2.80
2023-03-29T05:15:03.985Z,2.81
2023-03-29T05:17:31.955Z,2.81
2023-03-29T05:19:59.057Z,2.83
2023-03-29T05:22:26.125Z,2.79
2023-03-29T05:24:53.166Z,2.77
2023-03-29T05:27:22.910Z,2.80
2023-03-29T05:29:50.087Z,2.73
2023-03-29T05:32:17.201Z,2.74
2023-03-29T05:34:45.080Z,2.68
2023-03-29T05:37:13.359Z,2.69
2023-03-29T05:39:40.430Z,2.62
2023-03-29T05:42:07.685Z,2.56
2023-03-29T05:44:34.810Z,2.58
2023-03-29T05:47:01.927Z,2.57
2023-03-29T05:49:28.992Z,2.58
2023-03-29T05:51:57.051Z,2.62
2023-03-29T05:54:25.230Z,2.66
2023-03-29T05:56:52.523Z,2.71
2023-03-29T05:59:20.115Z,2.79
2023-03-29T06:01:47.379Z,2.87
2023-03-29T06:04:15.205Z,2.96
2023-03-29T06:06:42.379Z,3.02
2023-03-29T06:09:09.890Z,3.04
2023-03-29T06:11:37.085Z,3.07
2023-03-29T06:14:04.661Z,3.13
2023-03-29T06:16:32.507Z,3.17
2023-03-29T06:18:59.788Z,3.22
2023-03-29T06:21:27.150Z,3.23
2023-03-29T06:23:54.178Z,3.23
2023-03-29T06:26:21.376Z,3.25
2023-03-29T06:28:51.289Z,3.19
2023-03-29T06:31:19.942Z,3.12
2023-03-29T06:33:47.415Z,3.09
2023-03-29T06:36:16.250Z,3.09
2023-03-29T06:38:45.545Z,3.07
2023-03-29T06:41:12.733Z,3.03
2023-03-29T06:43:39.828Z,3.07
2023-03-29T06:46:12.179Z,3.09
2023-03-29T06:48:40.938Z,3.10
2023-03-29T06:51:08.341Z,3.10
2023-03-29T06:53:36.607Z,3.13
2023-03-29T06:56:08.954Z,3.14
2023-03-29T06:58:36.717Z,3.15
2023-03-29T07:01:04.749Z,3.16
2023-03-29T07:03:34.873Z,3.16
2023-03-29T07:06:09.737Z,3.19
2023-03-29T07:08:44.373Z,3.21
2023-03-29T07:11:13.198Z,3.25
2023-03-29T07:13:43.888Z,3.29
2023-03-29T07:16:12.907Z,3.36
2023-03-29T07:18:41.629Z,3.40
2023-03-29T07:21:09.146Z,3.42
2023-03-29T07:23:36.227Z,3.43
2023-03-29T07:26:05.655Z,3.48
2023-03-29T07:28:32.888Z,3.53
2023-03-29T07:31:10.821Z,3.55
2023-03-29T07:33:38.206Z,3.60
2023-03-29T07:36:06.404Z,3.68
2023-03-29T07:38:33.634Z,3.76
2023-03-29T07:41:04.444Z,3.81
2023-03-29T07:43:31.684Z,3.83
2023-03-29T07:46:02.947Z,3.85
2023-03-29T07:48:30.978Z,3.85
2023-03-29T07:50:58.179Z,3.88
2023-03-29T07:53:25.347Z,3.91
2023-03-29T07:55:54.738Z,3.96
2023-03-29T07:58:21.887Z,4.03
2023-03-29T08:00:49.430Z,4.09
2023-03-29T08:03:17.063Z,4.14
2023-03-29T08:05:44.323Z,4.22
2023-03-29T08:08:11.406Z,4.23
2023-03-29T08:10:39.455Z,4.28
2023-03-29T08:13:08.306Z,4.30
2023-03-29T08:15:38.860Z,4.33
2023-03-29T08:18:07.194Z,4.35
2023-03-29T08:20:34.297Z,4.39
2023-03-29T08:23:01.468Z,4.45
2023-03-29T08:25:28.541Z,4.56
2023-03-29T08:27:55.636Z,4.64
2023-03-29T08:30:22.939Z,4.74
2023-03-29T08:32:52.875Z,4.77
2023-03-29T08:35:21.191Z,4.81
2023-03-29T08:37:48.314Z,4.81
2023-03-29T08:40:20.118Z,4.85
2023-03-29T08:43:23.997Z,4.91
2023-03-29T08:46:07.565Z,4.99
2023-03-29T08:48:42.663Z,5.05
2023-03-29T08:51:19.680Z,5.12
2023-03-29T08:53:52.730Z,5.16
2023-03-29T08:56:25.334Z,5.22
2023-03-29T08:58:52.561Z,5.23
2023-03-29T09:01:20.566Z,5.27
2023-03-29T09:03:50.583Z,5.34
2023-03-29T09:06:20.778Z,5.43
2023-03-29T09:08:49.836Z,5.53
2023-03-29T09:11:26.202Z,5.59
2023-03-29T09:14:21.424Z,5.67
2023-03-29T09:16:51.533Z,5.69
2023-03-29T09:19:46.010Z,5.74
2023-03-29T09:22:22.446Z,5.83
2023-03-29T09:25:09.822Z,5.89
2023-03-29T09:28:04.544Z,5.92
2023-03-29T09:31:13.211Z,5.97
2023-03-29T09:33:45.064Z,6.01
2023-03-29T09:36:24.967Z,6.06
2023-03-29T09:38:54.460Z,6.09
2023-03-29T09:41:31.698Z,6.14
2023-03-29T09:44:00.786Z,6.21
2023-03-29T09:46:43.445Z,6.32
2023-03-29T09:49:17.422Z,6.41
2023-03-29T09:51:45.972Z,6.49
2023-03-29T09:54:13.211Z,6.53
2023-03-29T09:56:40.664Z,6.58
2023-03-29T09:59:11.179Z,6.62
2023-03-29T10:01:41.798Z,6.75
2023-03-29T10:04:09.991Z,6.90
2023-03-29T10:06:39.583Z,7.01
2023-03-29T10:09:16.317Z,7.14
2023-03-29T10:11:47.690Z,7.20
2023-03-29T10:14:32.574Z,7.39
2023-03-29T10:16:59.938Z,7.50
2023-03-29T10:19:34.433Z,7.58
2023-03-29T10:22:16.896Z,7.83
2023-03-29T10:24:52.061Z,8.02
2023-03-29T10:27:24.697Z,8.10
2023-03-29T10:29:51.954Z,8.15
2023-03-29T10:32:22.808Z,8.34
2023-03-29T10:34:51.258Z,8.62
2023-03-29T10:37:19.466Z,8.75
2023-03-29T10:39:47.930Z,8.94
2023-03-29T10:42:17.751Z,9.17
2023-03-29T10:44:53.637Z,9.31
2023-03-29T10:47:21.510Z,9.48
2023-03-29T10:49:56.459Z,9.51
2023-03-29T10:52:24.885Z,9.64
2023-03-29T10:54:55.933Z,9.66
2023-03-29T10:57:37.687Z,9.67
2023-03-29T11:00:33.308Z,9.66
2023-03-29T11:03:21.862Z,9.62
2023-03-29T11:06:01.846Z,9.67
2023-03-29T11:08:42.172Z,9.69
2023-03-29T11:11:30.964Z,9.77
2023-03-29T11:14:16.775Z,9.75
2023-03-29T11:17:02.494Z,9.89
2023-03-29T11:19:32.304Z,10.01
2023-03-29T11:22:21.372Z,9.93
2023-03-29T11:24:59.366Z,9.83
2023-03-29T11:27:35.585Z,9.77
2023-03-29T11:30:40.166Z,9.78
2023-03-29T11:33:26.664Z,9.67
2023-03-29T11:36:17.678Z,9.63
2023-03-29T11:39:04.895Z,9.63
2023-03-29T11:41:34.436Z,9.51
2023-03-29T11:44:05.523Z,9.44
2023-03-29T11:46:37.809Z,9.43
2023-03-29T11:49:15.603Z,9.41
2023-03-29T11:51:46.315Z,9.39
2023-03-29T11:54:13.228Z,9.43
2023-03-29T11:56:46.777Z,9.48
2023-03-29T11:59:24.863Z,9.45
2023-03-29T12:01:55.011Z,9.44
2023-03-29T12:04:32.639Z,9.39
2023-03-29T12:07:09.804Z,9.34
2023-03-29T12:09:50.242Z,9.23
2023-03-29T12:12:29.669Z,9.07
2023-03-29T12:15:01.751Z,9.08
2023-03-29T12:17:40.360Z,9.11
2023-03-29T12:20:15.586Z,9.16
2023-03-29T12:22:46.104Z,9.31
2023-03-29T12:25:18.818Z,9.48
2023-03-29T12:28:01.461Z,9.55
2023-03-29T12:30:46.441Z,9.57
2023-03-29T12:33:41.402Z,9.58
2023-03-29T12:36:24.878Z,9.63
2023-03-29T12:38:53.127Z,9.69
2023-03-29T12:41:22.209Z,9.84
2023-03-29T12:43:49.556Z,9.99
2023-03-29T12:46:19.914Z,10.08
2023-03-29T12:48:49.907Z,10.26
2023-03-29T12:51:19.213Z,10.46
2023-03-29T12:53:47.723Z,10.55
2023-03-29T12:56:23.723Z,10.52
2023-03-29T12:59:15.811Z,10.36
2023-03-29T13:01:57.588Z,10.19
2023-03-29T13:04:38.722Z,10.16
2023-03-29T13:07:07.144Z,10.12
2023-03-29T13:09:56.123Z,10.10
2023-03-29T13:12:35.468Z,10.00
2023-03-29T13:15:08.235Z,9.95
2023-03-29T13:17:58.715Z,9.92
2023-03-29T13:20:52.508Z,9.94
2023-03-29T13:23:37.054Z,9.95
2023-03-29T13:26:30.189Z,9.92
2023-03-29T13:29:18.797Z,9.89
2023-03-29T13:32:04.753Z,9.93
2023-03-29T13:34:47.278Z,9.99
2023-03-29T13:37:41.011Z,10.13
2023-03-29T13:40:29.669Z,10.23
2023-03-29T13:43:09.929Z,10.33
2023-03-29T13:45:38.783Z,10.42
2023-03-29T13:48:30.052Z,10.48
2023-03-29T13:51:19.064Z,10.61
2023-03-29T13:54:07.364Z,10.75
2023-03-29T13:56:39.748Z,10.81
2023-03-29T13:59:18.887Z,10.92
2023-03-29T14:01:54.492Z,11.05
2023-03-29T14:04:25.520Z,11.08
2023-03-29T14:06:55.845Z,11.15
2023-03-29T14:09:28.500Z,11.18
2023-03-29T14:11:56.867Z,11.23
2023-03-29T14:14:25.579Z,11.25
2023-03-29T14:16:54.938Z,11.21
2023-03-29T14:19:30.926Z,11.21
2023-03-29T14:22:00.396Z,11.27
2023-03-29T14:24:35.543Z,11.29
2023-03-29T14:27:05.023Z,11.28
2023-03-29T14:29:33.392Z,11.29
2023-03-29T14:32:11.280Z,11.27
2023-03-29T14:34:39.192Z,11.26
2023-03-29T14:37:08.959Z,11.29
2023-03-29T14:39:36.638Z,11.29
2023-03-29T14:42:03.785Z,11.34
2023-03-29T14:44:34.707Z,11.39
2023-03-29T14:47:02.976Z,11.46
2023-03-29T14:49:31.743Z,11.48
2023-03-29T14:51:59.266Z,11.45
2023-03-29T14:54:27.880Z,11.42
2023-03-29T14:56:55.394Z,11.38
2023-03-29T14:59:29.050Z,11.35
2023-03-29T15:01:56.420Z,11.32
2023-03-29T15:04:23.748Z,11.30
2023-03-29T15:06:53.110Z,11.33
2023-03-29T15:09:27.201Z,11.34
2023-03-29T15:11:56.434Z,11.39
2023-03-29T15:14:26.850Z,11.41
2023-03-29T15:16:58.071Z,11.41
2023-03-29T15:19:25.701Z,11.41
2023-03-29T15:21:52.842Z,11.42
2023-03-29T15:24:29.291Z,11.41
2023-03-29T15:27:13.923Z,11.44
2023-03-29T15:29:42.910Z,11.45
2023-03-29T15:32:22.747Z,11.48
2023-03-29T15:35:05.083Z,11.47
2023-03-29T15:37:32.200Z,11.45
2023-03-29T15:39:59.613Z,11.51
2023-03-29T15:42:26.851Z,11.55
2023-03-29T15:44:56.165Z,11.59
2023-03-29T15:47:23.980Z,11.57
2023-03-29T15:49:51.659Z,11.55
2023-03-29T15:52:18.731Z,11.56
2023-03-29T15:54:45.750Z,11.51
2023-03-29T15:57:14.901Z,11.50
2023-03-29T15:59:42.858Z,11.47
2023-03-29T16:02:15.846Z,11.41
2023-03-29T16:04:43.364Z,11.41
2023-03-29T16:07:14.116Z,11.35
2023-03-29T16:09:41.327Z,11.34
2023-03-29T16:12:08.357Z,11.30
2023-03-29T16:14:36.163Z,11.23
2023-03-29T16:17:04.002Z,11.20
2023-03-29T16:19:32.601Z,11.18
2023-03-29T16:22:01.153Z,11.17
2023-03-29T16:24:31.363Z,11.14
2023-03-29T16:26:59.116Z,11.13
2023-03-29T16:29:26.299Z,11.10
2023-03-29T16:31:53.833Z,11.05
2023-03-29T16:34:21.787Z,11.00
2023-03-29T16:36:49.876Z,11.00
2023-03-29T16:39:18.281Z,10.94
2023-03-29T16:41:48.325Z,10.91
2023-03-29T16:44:18.608Z,10.92
2023-03-29T16:46:47.205Z,10.91
2023-03-29T16:49:18.804Z,10.89
2023-03-29T16:51:46.891Z,10.86
2023-03-29T16:54:14.859Z,10.80
2023-03-29T16:56:42.134Z,10.77
2023-03-29T16:59:09.349Z,10.75
2023-03-29T17:01:36.694Z,10.73
2023-03-29T17:04:04.340Z,10.75
2023-03-29T17:06:32.653Z,10.74
2023-03-29T17:09:00.600Z,10.72
2023-03-29T17:11:28.969Z,10.71
2023-03-29T17:13:56.272Z,10.69
2023-03-29T17:16:23.470Z,10.69
2023-03-29T17:18:50.680Z,10.62
2023-03-29T17:21:17.779Z,10.59
2023-03-29T17:23:44.867Z,10.58
2023-03-29T17:26:13.365Z,10.59
2023-03-29T17:28:40.462Z,10.59
2023-03-29T17:31:08.007Z,10.52
2023-03-29T17:33:36.072Z,10.52
2023-03-29T17:36:04.554Z,10.49
2023-03-29T17:38:34.092Z,10.42
2023-03-29T17:41:02.803Z,10.37
2023-03-29T17:43:30.396Z,10.36
2023-03-29T17:45:57.738Z,10.34
2023-03-29T17:48:24.827Z,10.30
2023-03-29T17:50:52.079Z,10.28
2023-03-29T17:53:19.256Z,10.23
2023-03-29T17:55:46.315Z,10.20
2023-03-29T17:58:13.385Z,10.13
2023-03-29T18:00:41.459Z,10.08
2023-03-29T18:03:08.549Z,10.05
2023-03-29T18:05:35.972Z,10.00
2023-03-29T18:08:03.666Z,9.96
2023-03-29T18:10:30.902Z,9.89
2023-03-29T18:12:58.014Z,9.89
2023-03-29T18:15:25.219Z,9.86
2023-03-29T18:17:52.359Z,9.80
2023-03-29T18:20:20.618Z,9.79
2023-03-29T18:22:47.784Z,9.76
2023-03-29T18:25:18.206Z,9.73
2023-03-29T18:27:45.348Z,9.69
2023-03-29T18:30:13.917Z,9.68
2023-03-29T18:32:41.064Z,9.70
2023-03-29T18:35:08.901Z,9.66
2023-03-29T18:37:36.372Z,9.62
2023-03-29T18:40:07.905Z,9.62
2023-03-29T18:42:35.067Z,9.64
2023-03-29T18:45:02.369Z,9.60
2023-03-29T18:47:29.448Z,9.64
2023-03-29T18:49:57.729Z,9.67
2023-03-29T18:52:24.824Z,9.65
2023-03-29T18:54:51.890Z,9.66
2023-03-29T18:57:19.151Z,9.65
2023-03-29T18:59:46.791Z,9.63
2023-03-29T19:02:14.109Z,9.62
2023-03-29T19:04:41.180Z,9.61
2023-03-29T19:07:08.945Z,9.62
2023-03-29T19:09:36.057Z,9.62
2023-03-29T19:12:03.502Z,9.61
2023-03-29T19:14:30.685Z,9.55
2023-03-29T19:16:57.769Z,9.52
2023-03-29T19:19:26.426Z,9.53
2023-03-29T19:21:53.695Z,9.55
2023-03-29T19:24:21.912Z,9.57
2023-03-29T19:26:51.549Z,9.58
2023-03-29T19:29:18.735Z,9.59
2023-03-29T19:31:46.172Z,9.58
2023-03-29T19:34:13.373Z,9.62
2023-03-29T19:36:40.558Z,9.64
2023-03-29T19:39:07.621Z,9.66
2023-03-29T19:41:34.683Z,9.64
2023-03-29T19:44:01.984Z,9.65
2023-03-29T19:46:29.240Z,9.63
2023-03-29T19:48:56.341Z,9.61
2023-03-29T19:51:23.710Z,9.62
2023-03-29T19:53:50.829Z,9.66
2023-03-29T19:56:17.910Z,9.67
2023-03-29T19:58:45.690Z,9.71
2023-03-29T20:01:12.798Z,9.75
2023-03-29T20:03:42.257Z,9.76
2023-03-29T20:06:11.030Z,9.77
2023-03-29T20:08:38.957Z,9.79
2023-03-29T20:11:10.207Z,9.79
2023-03-29T20:13:46.759Z,9.79
2023-03-29T20:16:18.097Z,9.81
2023-03-29T20:18:45.665Z,9.84
2023-03-29T20:21:14.127Z,9.85
2023-03-29T20:23:41.567Z,9.86
2023-03-29T20:26:08.705Z,9.90
2023-03-29T20:28:37.724Z,9.92
2023-03-29T20:31:07.256Z,9.89
2023-03-29T20:33:34.518Z,9.88
2023-03-29T20:36:01.716Z,9.88
2023-03-29T20:38:28.921Z,9.90
2023-03-29T20:40:56.046Z,9.88
2023-03-29T20:43:24.572Z,9.89
2023-03-29T20:45:53.860Z,9.87
2023-03-29T20:48:23.496Z,9.88
2023-03-29T20:50:51.366Z,9.91
2023-03-29T20:53:20.236Z,9.89
2023-03-29T20:55:47.820Z,9.90
2023-03-29T20:58:15.713Z,9.90
2023-03-29T21:00:43.536Z,9.90
2023-03-29T21:03:10.846Z,9.91
2023-03-29T21:05:39.145Z,9.88
2023-03-29T21:08:06.315Z,9.86
2023-03-29T21:10:33.468Z,9.87
2023-03-29T21:13:02.862Z,9.85
2023-03-29T21:15:31.179Z,9.84
2023-03-29T21:17:58.520Z,9.86
2023-03-29T21:20:26.128Z,9.88
2023-03-29T21:22:53.250Z,9.88
2023-03-29T21:25:20.326Z,9.89
2023-03-29T21:27:47.571Z,9.88
2023-03-29T21:30:14.832Z,9.89
2023-03-29T21:32:41.999Z,9.88
2023-03-29T21:35:09.710Z,9.87
2023-03-29T21:37:36.959Z,9.83
2023-03-29T21:40:09.256Z,9.80
2023-03-29T21:42:36.395Z,9.79
2023-03-29T21:45:04.605Z,9.75
2023-03-29T21:47:31.726Z,9.75
2023-03-29T21:49:58.808Z,9.75
2023-03-29T21:52:25.972Z,9.69
2023-03-29T21:54:53.409Z,9.64
2023-03-29T21:57:20.636Z,9.49
2023-03-29T21:59:47.769Z,9.47
2023-03-29T22:02:17.527Z,9.48
2023-03-29T22:04:44.733Z,9.47
2023-03-29T22:07:12.335Z,9.40
2023-03-29T22:09:42.476Z,9.39
2023-03-29T22:12:10.413Z,9.37
2023-03-29T22:14:37.466Z,9.37
2023-03-29T22:17:10.170Z,9.42
2023-03-29T22:19:40.095Z,9.44
2023-03-29T22:22:13.507Z,9.50
2023-03-29T22:24:41.897Z,9.51
2023-03-29T22:27:09.705Z,9.52
2023-03-29T22:29:36.810Z,9.51
2023-03-29T22:32:04.174Z,9.45
2023-03-29T22:34:31.835Z,9.45
2023-03-29T22:36:58.906Z,9.45
2023-03-29T22:39:25.987Z,9.46
2023-03-29T22:41:53.052Z,9.49
2023-03-29T22:44:20.304Z,9.50
2023-03-29T22:46:47.407Z,9.50
2023-03-29T22:49:14.682Z,9.47
2023-03-29T22:51:41.880Z,9.45
2023-03-29T22:54:08.923Z,9.39
2023-03-29T22:56:36.001Z,9.33
2023-03-29T22:59:03.330Z,9.21
2023-03-29T23:01:30.725Z,9.16
2023-03-29T23:03:57.820Z,9.14
2023-03-29T23:06:25.005Z,9.13
2023-03-29T23:08:52.076Z,9.13
2023-03-29T23:11:19.178Z,9.18
2023-03-29T23:13:49.076Z,9.17
2023-03-29T23:16:16.340Z,9.19
2023-03-29T23:18:44.054Z,9.19
2023-03-29T23:21:11.155Z,9.19
2023-03-29T23:23:38.452Z,9.20
2023-03-29T23:26:08.396Z,9.22
2023-03-29T23:28:37.147Z,9.20
2023-03-29T23:31:09.301Z,9.15
2023-03-29T23:33:40.326Z,9.16
2023-03-29T23:36:09.901Z,9.17
2023-03-29T23:38:38.613Z,9.20
2023-03-29T23:41:08.371Z,9.22
2023-03-29T23:43:37.250Z,9.19
2023-03-29T23:46:10.603Z,9.23
2023-03-29T23:48:38.612Z,9.26
2023-03-29T23:51:07.748Z,9.20
2023-03-29T23:53:34.951Z,9.18
2023-03-29T23:56:03.820Z,9.18
2023-03-29T23:58:36.044Z,9.14
